Time;durP1;ratioP1;P1;durP2;ratioP2;P2;SDS_P1;SDS_P2;PMS_P1;PMS_P2;Temp;Humidity;BMP_temperature;BMP_pressure;BME280_temperature;BME280_humidity;BME280_pressure;Samples;Min_cycle;Max_cycle;Signal;HPM_P1;HPM_P2
2022/01/29 00:00:33;;;;;;;0.60;0.60;;;;;;;;;;5005470;28;20054;-45
2022/01/29 00:02:59;;;;;;;0.50;0.50;;;;;;;;;;5002556;28;20050;-45
2022/01/29 00:05:24;;;;;;;1.67;0.50;;;;;;;;;;4999419;28;20033;-44
2022/01/29 00:07:49;;;;;;;0.50;0.50;;;;;;;;;;5003767;28;20034;-44
2022/01/29 00:10:15;;;;;;;0.60;0.60;;;;;;;;;;4997154;28;20058;-43
2022/01/29 00:12:40;;;;;;;0.50;0.45;;;;;;;;;;5003429;28;20101;-44
2022/01/29 00:15:06;;;;;;;1.65;0.90;;;;;;;;;;5004711;28;20074;-45
2022/01/29 00:17:31;;;;;;;0.85;0.77;;;;;;;;;;4999489;28;20388;-48
2022/01/29 00:19:57;;;;;;;0.65;0.65;;;;;;;;;;5004202;28;20038;-44
2022/01/29 00:22:22;;;;;;;0.60;0.43;;;;;;;;;;5004837;28;20491;-46
2022/01/29 00:24:47;;;;;;;1.92;1.08;;;;;;;;;;4998970;28;20099;-47
2022/01/29 00:27:13;;;;;;;0.60;0.60;;;;;;;;;;4999084;28;20408;-42
2022/01/29 00:29:40;;;;;;;0.50;0.50;;;;;;;;;;5001149;28;20069;-44
2022/01/29 00:32:06;;;;;;;0.75;0.75;;;;;;;;;;4999728;28;20084;-45
2022/01/29 00:34:31;;;;;;;0.65;0.60;;;;;;;;;;4992390;28;20038;-43
2022/01/29 00:36:57;;;;;;;0.75;0.68;;;;;;;;;;5008915;28;20501;-43
2022/01/29 00:39:22;;;;;;;0.77;0.57;;;;;;;;;;4993288;28;20034;-43
2022/01/29 00:41:48;;;;;;;0.80;0.80;;;;;;;;;;5002774;28;20825;-43
2022/01/29 00:44:13;;;;;;;0.45;0.45;;;;;;;;;;4996271;28;20042;-43
2022/01/29 00:46:41;;;;;;;0.60;0.60;;;;;;;;;;4989693;28;20030;-45
2022/01/29 00:49:06;;;;;;;0.82;0.60;;;;;;;;;;5005546;28;20034;-45
2022/01/29 00:51:32;;;;;;;0.50;0.50;;;;;;;;;;4987771;28;20096;-44
2022/01/29 00:53:57;;;;;;;0.80;0.47;;;;;;;;;;4988398;28;20038;-45
2022/01/29 00:56:22;;;;;;;0.65;0.65;;;;;;;;;;4997416;28;20368;-44
2022/01/29 00:58:47;;;;;;;1.42;0.90;;;;;;;;;;4991127;28;20030;-44
2022/01/29 01:01:13;;;;;;;0.70;0.52;;;;;;;;;;4985808;28;20042;-44
2022/01/29 01:03:38;;;;;;;0.80;0.80;;;;;;;;;;4985481;28;20049;-44
2022/01/29 01:06:03;;;;;;;2.60;0.80;;;;;;;;;;4999012;28;20046;-43
2022/01/29 01:08:29;;;;;;;1.17;0.60;;;;;;;;;;4997233;28;20053;-45
2022/01/29 01:10:54;;;;;;;0.60;0.52;;;;;;;;;;4998165;28;20046;-44
2022/01/29 01:13:19;;;;;;;0.75;0.73;;;;;;;;;;4997098;28;20033;-45
2022/01/29 01:15:45;;;;;;;0.98;0.90;;;;;;;;;;5008063;28;20034;-45
2022/01/29 01:18:10;;;;;;;0.73;0.73;;;;;;;;;;5008576;28;20092;-44
2022/01/29 01:20:35;;;;;;;0.50;0.50;;;;;;;;;;5004285;28;20038;-46
2022/01/29 01:23:00;;;;;;;0.70;0.70;;;;;;;;;;5007640;28;20091;-44
2022/01/29 01:25:26;;;;;;;0.63;0.63;;;;;;;;;;5007343;28;20047;-48
2022/01/29 01:27:52;;;;;;;1.95;0.60;;;;;;;;;;5009190;28;20034;-44
2022/01/29 01:30:17;;;;;;;3.08;1.20;;;;;;;;;;5002322;28;20038;-43
2022/01/29 01:32:43;;;;;;;3.85;1.40;;;;;;;;;;4995637;28;20065;-43
2022/01/29 01:35:20;;;;;;;0.82;0.82;;;;;;;;;;4991216;28;20053;-44
2022/01/29 01:38:00;;;;;;;2.40;1.20;;;;;;;;;;4995004;28;20079;-43
2022/01/29 01:40:27;;;;;;;1.40;1.30;;;;;;;;;;5002135;28;20061;-45
2022/01/29 01:42:58;;;;;;;1.00;0.90;;;;;;;;;;4994196;28;20825;-43
2022/01/29 01:45:24;;;;;;;1.95;1.25;;;;;;;;;;5011920;28;20030;-49
2022/01/29 01:47:49;;;;;;;1.63;1.13;;;;;;;;;;5003208;28;20491;-47
2022/01/29 01:50:14;;;;;;;1.73;0.90;;;;;;;;;;5011329;28;20464;-47
2022/01/29 01:52:40;;;;;;;2.25;1.30;;;;;;;;;;4997893;28;20118;-43
2022/01/29 01:55:05;;;;;;;1.30;1.25;;;;;;;;;;4999772;28;20038;-47
2022/01/29 01:57:31;;;;;;;2.28;1.50;;;;;;;;;;5007479;28;20033;-46
2022/01/29 01:59:56;;;;;;;1.67;1.45;;;;;;;;;;5007916;28;20038;-45
2022/01/29 02:02:21;;;;;;;1.50;1.40;;;;;;;;;;5008049;28;20042;-46
2022/01/29 02:04:46;;;;;;;1.98;1.00;;;;;;;;;;4997213;28;20049;-43
2022/01/29 02:07:12;;;;;;;1.35;1.05;;;;;;;;;;5004656;28;20440;-47
2022/01/29 02:09:39;;;;;;;2.58;1.88;;;;;;;;;;5009101;28;20073;-48
2022/01/29 02:12:04;;;;;;;3.08;1.45;;;;;;;;;;5003877;28;20088;-43
2022/01/29 02:14:32;;;;;;;0.85;0.85;;;;;;;;;;5005917;28;20045;-46
2022/01/29 02:16:58;;;;;;;1.08;1.08;;;;;;;;;;5007366;28;20490;-43
2022/01/29 02:19:24;;;;;;;1.08;0.98;;;;;;;;;;5005266;28;20527;-47
2022/01/29 02:21:50;;;;;;;2.22;1.35;;;;;;;;;;5005599;28;20056;-45
2022/01/29 02:24:15;;;;;;;0.73;0.70;;;;;;;;;;5008009;28;20145;-43
2022/01/29 02:26:41;;;;;;;1.60;1.10;;;;;;;;;;4998000;28;20089;-43
2022/01/29 02:29:06;;;;;;;1.00;1.00;;;;;;;;;;5006039;28;20038;-44
2022/01/29 02:31:31;;;;;;;1.17;1.08;;;;;;;;;;5005778;28;20065;-43
2022/01/29 02:33:57;;;;;;;1.38;1.10;;;;;;;;;;5010242;28;20087;-45
2022/01/29 02:36:22;;;;;;;1.55;1.45;;;;;;;;;;5005101;28;20129;-45
2022/01/29 02:38:47;;;;;;;1.08;1.08;;;;;;;;;;5001689;28;20416;-46
2022/01/29 02:41:13;;;;;;;1.02;1.02;;;;;;;;;;5004136;28;20050;-46
2022/01/29 02:43:43;;;;;;;1.52;1.40;;;;;;;;;;5009403;28;20041;-43
2022/01/29 02:48:47;;;;;;;2.88;1.33;;;;;;;;;;5001588;28;20038;-44
2022/01/29 02:51:13;;;;;;;1.10;1.10;;;;;;;;;;5006508;28;20072;-43
2022/01/29 02:53:38;;;;;;;2.60;0.95;;;;;;;;;;4991190;28;20050;-45
2022/01/29 02:56:04;;;;;;;1.73;1.63;;;;;;;;;;5000228;28;20042;-46
2022/01/29 02:58:29;;;;;;;1.45;1.33;;;;;;;;;;5004014;28;20030;-46
2022/01/29 03:00:54;;;;;;;2.53;1.30;;;;;;;;;;5014019;28;20034;-48
2022/01/29 03:03:20;;;;;;;1.50;1.40;;;;;;;;;;4991697;28;20555;-45
2022/01/29 03:05:45;;;;;;;1.20;1.10;;;;;;;;;;4995397;28;20511;-48
2022/01/29 03:08:10;;;;;;;1.67;1.27;;;;;;;;;;5000549;28;20034;-46
2022/01/29 03:10:36;;;;;;;1.38;1.20;;;;;;;;;;5000211;28;20038;-45
2022/01/29 03:13:01;;;;;;;1.23;1.13;;;;;;;;;;5002634;28;20431;-45
2022/01/29 03:15:27;;;;;;;1.52;1.30;;;;;;;;;;5000866;28;20591;-45
2022/01/29 03:17:52;;;;;;;1.05;1.02;;;;;;;;;;4997943;28;20030;-45
2022/01/29 03:20:17;;;;;;;1.20;1.15;;;;;;;;;;5000660;28;20045;-46
2022/01/29 03:22:42;;;;;;;0.98;0.80;;;;;;;;;;5001971;28;20038;-46
2022/01/29 03:25:08;;;;;;;0.80;0.80;;;;;;;;;;5008213;28;20042;-45
2022/01/29 03:27:33;;;;;;;1.13;0.90;;;;;;;;;;4996285;28;20147;-45
2022/01/29 03:29:59;;;;;;;1.10;0.68;;;;;;;;;;5005719;28;20038;-47
2022/01/29 03:32:24;;;;;;;0.70;0.70;;;;;;;;;;5000893;28;20434;-46
2022/01/29 03:34:50;;;;;;;0.65;0.65;;;;;;;;;;4997134;28;20434;-45
2022/01/29 03:37:15;;;;;;;1.30;1.00;;;;;;;;;;5001804;28;20069;-46
2022/01/29 03:39:43;;;;;;;0.77;0.77;;;;;;;;;;5004171;28;20034;-45
2022/01/29 03:42:09;;;;;;;0.88;0.88;;;;;;;;;;5003525;28;20041;-45
2022/01/29 03:44:35;;;;;;;0.70;0.70;;;;;;;;;;5011749;28;20044;-47
2022/01/29 03:47:00;;;;;;;0.85;0.85;;;;;;;;;;5002010;28;20038;-44
2022/01/29 03:49:25;;;;;;;1.70;0.80;;;;;;;;;;4994335;28;20068;-47
2022/01/29 03:51:51;;;;;;;1.15;0.70;;;;;;;;;;5002965;28;20543;-45
2022/01/29 03:54:16;;;;;;;0.80;0.80;;;;;;;;;;4999949;28;20499;-45
2022/01/29 03:56:41;;;;;;;0.63;0.63;;;;;;;;;;5001018;28;20045;-44
2022/01/29 03:59:06;;;;;;;1.27;0.60;;;;;;;;;;4999464;28;20041;-45
2022/01/29 04:01:32;;;;;;;0.65;0.50;;;;;;;;;;5005151;28;20588;-47
2022/01/29 04:03:57;;;;;;;0.90;0.90;;;;;;;;;;5006541;28;20538;-43
2022/01/29 04:06:23;;;;;;;2.15;0.60;;;;;;;;;;5006456;28;20041;-45
2022/01/29 04:08:48;;;;;;;0.60;0.60;;;;;;;;;;5003828;28;20033;-45
2022/01/29 04:11:14;;;;;;;0.73;0.73;;;;;;;;;;5003816;28;20550;-45
2022/01/29 04:13:43;;;;;;;0.75;0.70;;;;;;;;;;5004693;28;20069;-45
2022/01/29 04:16:08;;;;;;;0.77;0.75;;;;;;;;;;5006595;28;20058;-46
2022/01/29 04:18:34;;;;;;;1.30;0.80;;;;;;;;;;5002043;28;20061;-46
2022/01/29 04:20:59;;;;;;;0.45;0.45;;;;;;;;;;5003841;28;20033;-48
2022/01/29 04:23:24;;;;;;;0.60;0.60;;;;;;;;;;4996990;28;20049;-48
2022/01/29 04:25:52;;;;;;;1.15;0.90;;;;;;;;;;5015367;28;20042;-45
2022/01/29 04:28:18;;;;;;;0.77;0.47;;;;;;;;;;5001706;28;20042;-45
2022/01/29 04:30:47;;;;;;;1.05;0.43;;;;;;;;;;5008523;28;20444;-46
2022/01/29 04:33:28;;;;;;;0.57;0.57;;;;;;;;;;5003207;28;20101;-45
2022/01/29 04:35:54;;;;;;;1.58;0.75;;;;;;;;;;5002452;28;20049;-46
2022/01/29 04:38:19;;;;;;;0.90;0.73;;;;;;;;;;5001892;28;20127;-45
2022/01/29 04:40:44;;;;;;;1.88;0.80;;;;;;;;;;5008597;28;20050;-45
2022/01/29 04:43:09;;;;;;;0.65;0.50;;;;;;;;;;5002390;28;20049;-45
2022/01/29 04:45:35;;;;;;;0.98;0.70;;;;;;;;;;5001582;28;20037;-43
2022/01/29 04:48:00;;;;;;;0.77;0.70;;;;;;;;;;4997125;28;20050;-45
2022/01/29 04:50:25;;;;;;;0.63;0.63;;;;;;;;;;4997034;28;20046;-45
2022/01/29 04:52:50;;;;;;;0.95;0.73;;;;;;;;;;5000451;28;20026;-44
2022/01/29 04:55:16;;;;;;;0.65;0.65;;;;;;;;;;5002499;28;20042;-46
2022/01/29 04:57:41;;;;;;;0.60;0.60;;;;;;;;;;5002934;28;20044;-44
2022/01/29 05:00:20;;;;;;;0.93;0.93;;;;;;;;;;5009704;28;20151;-45
2022/01/29 05:02:45;;;;;;;0.90;0.90;;;;;;;;;;4998033;28;20495;-45
2022/01/29 05:05:11;;;;;;;4.18;1.35;;;;;;;;;;5004381;28;20052;-47
2022/01/29 05:07:36;;;;;;;0.88;0.88;;;;;;;;;;5001884;28;20041;-45
2022/01/29 05:10:01;;;;;;;0.90;0.90;;;;;;;;;;5004912;28;20037;-45
2022/01/29 05:12:34;;;;;;;10.75;0.90;;;;;;;;;;4992793;28;20038;-45
2022/01/29 05:28:04;;;;;;;0.70;0.70;;;;;;;;;;4996523;28;20053;-45
2022/01/29 05:30:29;;;;;;;0.88;0.88;;;;;;;;;;5006424;28;20030;-46
2022/01/29 05:32:54;;;;;;;0.50;0.50;;;;;;;;;;4993504;28;20042;-45
2022/01/29 05:35:19;;;;;;;0.80;0.80;;;;;;;;;;4993703;28;20052;-46
2022/01/29 05:37:49;;;;;;;0.70;0.70;;;;;;;;;;4999004;28;20060;-47
2022/01/29 05:40:14;;;;;;;1.10;0.88;;;;;;;;;;5008182;28;20061;-45
2022/01/29 05:42:40;;;;;;;0.90;0.90;;;;;;;;;;4996077;28;20046;-45
2022/01/29 05:45:05;;;;;;;1.00;1.00;;;;;;;;;;5009117;28;20084;-44
2022/01/29 05:47:30;;;;;;;1.02;1.02;;;;;;;;;;5003992;28;20030;-46
2022/01/29 05:49:55;;;;;;;0.50;0.50;;;;;;;;;;5005398;28;20038;-46
2022/01/29 05:52:21;;;;;;;1.13;0.90;;;;;;;;;;4995228;28;20042;-46
2022/01/29 05:54:46;;;;;;;0.57;0.57;;;;;;;;;;4992737;28;20058;-45
2022/01/29 05:57:11;;;;;;;0.50;0.50;;;;;;;;;;5006357;28;20511;-44
2022/01/29 05:59:36;;;;;;;0.50;0.50;;;;;;;;;;5007163;28;20462;-46
2022/01/29 06:02:02;;;;;;;0.65;0.30;;;;;;;;;;5005087;28;20034;-45
2022/01/29 06:04:27;;;;;;;0.30;0.30;;;;;;;;;;5003504;28;20056;-44
2022/01/29 06:06:52;;;;;;;0.52;0.50;;;;;;;;;;5002113;28;20046;-45
2022/01/29 06:09:17;;;;;;;0.40;0.40;;;;;;;;;;4992824;28;20034;-47
2022/01/29 06:11:43;;;;;;;1.40;0.47;;;;;;;;;;5003559;28;20033;-48
2022/01/29 06:14:09;;;;;;;0.75;0.50;;;;;;;;;;5013462;28;20041;-45
2022/01/29 06:16:34;;;;;;;0.30;0.30;;;;;;;;;;5009006;28;20038;-46
2022/01/29 06:19:00;;;;;;;0.63;0.50;;;;;;;;;;5003629;28;20041;-47
2022/01/29 06:21:25;;;;;;;0.50;0.50;;;;;;;;;;5012735;28;20050;-46
2022/01/29 06:23:50;;;;;;;0.75;0.43;;;;;;;;;;4999519;28;20123;-46
2022/01/29 06:26:16;;;;;;;1.85;0.50;;;;;;;;;;5004615;28;20056;-47
2022/01/29 06:28:42;;;;;;;0.55;0.55;;;;;;;;;;4996598;28;20034;-45
2022/01/29 06:31:09;;;;;;;0.52;0.52;;;;;;;;;;5006555;28;20491;-49
2022/01/29 06:33:34;;;;;;;0.40;0.40;;;;;;;;;;4998387;28;20038;-52
2022/01/29 06:35:59;;;;;;;2.13;0.50;;;;;;;;;;5003135;28;20038;-47
2022/01/29 06:38:25;;;;;;;1.75;1.05;;;;;;;;;;5005933;28;20038;-47
2022/01/29 06:40:51;;;;;;;0.20;0.20;;;;;;;;;;5004272;28;20034;-46
2022/01/29 06:43:16;;;;;;;0.40;0.40;;;;;;;;;;5001421;28;20543;-45
2022/01/29 06:45:42;;;;;;;0.60;0.20;;;;;;;;;;5002076;28;20062;-46
2022/01/29 06:48:08;;;;;;;0.10;0.10;;;;;;;;;;5003597;28;20101;-46
2022/01/29 06:50:34;;;;;;;0.95;0.35;;;;;;;;;;4998210;28;20120;-48
2022/01/29 06:52:59;;;;;;;0.22;0.22;;;;;;;;;;4996589;28;20058;-45
2022/01/29 06:55:25;;;;;;;0.45;0.30;;;;;;;;;;5005061;28;20038;-45
2022/01/29 06:57:50;;;;;;;0.25;0.25;;;;;;;;;;5012133;28;21504;-45
2022/01/29 07:00:15;;;;;;;0.22;0.20;;;;;;;;;;5005106;28;20551;-46
2022/01/29 07:02:41;;;;;;;0.30;0.28;;;;;;;;;;5001300;28;20507;-45
2022/01/29 07:05:07;;;;;;;0.20;0.20;;;;;;;;;;5001530;28;20038;-46
2022/01/29 07:07:32;;;;;;;0.52;0.40;;;;;;;;;;5005885;28;20104;-45
2022/01/29 07:09:57;;;;;;;0.88;0.32;;;;;;;;;;5007291;28;20498;-44
2022/01/29 07:12:23;;;;;;;0.30;0.28;;;;;;;;;;5006077;28;20491;-45
2022/01/29 07:14:49;;;;;;;0.95;0.22;;;;;;;;;;5006334;28;20118;-44
2022/01/29 07:17:17;;;;;;;0.30;0.30;;;;;;;;;;5008293;28;20123;-44
2022/01/29 07:19:43;;;;;;;0.30;0.30;;;;;;;;;;5006932;28;20042;-46
2022/01/29 07:22:08;;;;;;;0.20;0.20;;;;;;;;;;5004933;28;20502;-46
2022/01/29 07:24:34;;;;;;;0.10;0.10;;;;;;;;;;5004720;28;21455;-46
2022/01/29 07:26:59;;;;;;;1.50;0.30;;;;;;;;;;4999502;28;20025;-45
2022/01/29 07:29:24;;;;;;;0.17;0.10;;;;;;;;;;5007610;28;20046;-44
2022/01/29 07:31:50;;;;;;;1.90;0.50;;;;;;;;;;5009960;28;20467;-46
2022/01/29 07:34:16;;;;;;;0.20;0.20;;;;;;;;;;5009069;28;20053;-45
2022/01/29 07:36:41;;;;;;;0.35;0.30;;;;;;;;;;4995277;28;20068;-45
2022/01/29 07:39:06;;;;;;;0.47;0.40;;;;;;;;;;5004003;28;20033;-45
2022/01/29 07:41:31;;;;;;;0.45;0.20;;;;;;;;;;5002023;28;20531;-45
2022/01/29 07:43:57;;;;;;;0.30;0.20;;;;;;;;;;5008893;28;20048;-45
2022/01/29 07:46:22;;;;;;;0.30;0.30;;;;;;;;;;4994797;28;20121;-45
2022/01/29 07:48:47;;;;;;;0.22;0.22;;;;;;;;;;5001955;28;20030;-45
2022/01/29 07:51:12;;;;;;;0.28;0.25;;;;;;;;;;5000032;28;20049;-45
2022/01/29 07:53:38;;;;;;;0.38;0.35;;;;;;;;;;4998543;28;20034;-45
2022/01/29 07:56:03;;;;;;;3.13;0.30;;;;;;;;;;5002811;28;20038;-45
2022/01/29 07:58:28;;;;;;;0.20;0.20;;;;;;;;;;4998726;28;20176;-46
2022/01/29 08:00:54;;;;;;;0.20;0.20;;;;;;;;;;5004022;28;20140;-46
2022/01/29 08:03:19;;;;;;;0.55;0.30;;;;;;;;;;5001615;28;20140;-44
2022/01/29 08:05:44;;;;;;;0.20;0.20;;;;;;;;;;5001934;28;20105;-45
2022/01/29 08:08:10;;;;;;;1.05;0.38;;;;;;;;;;5000634;28;20049;-45
2022/01/29 08:10:35;;;;;;;0.32;0.30;;;;;;;;;;5003394;28;20034;-47
2022/01/29 08:13:00;;;;;;;0.47;0.35;;;;;;;;;;4996833;28;20041;-46
2022/01/29 08:15:26;;;;;;;0.10;0.10;;;;;;;;;;4993868;28;20564;-45
2022/01/29 08:17:51;;;;;;;0.63;0.63;;;;;;;;;;4996935;28;20034;-45
2022/01/29 08:20:16;;;;;;;1.58;0.40;;;;;;;;;;5003346;28;20034;-45
2022/01/29 08:22:42;;;;;;;0.38;0.25;;;;;;;;;;5004287;28;20069;-46
2022/01/29 08:25:07;;;;;;;0.30;0.30;;;;;;;;;;5001902;28;20050;-44
2022/01/29 08:27:32;;;;;;;2.15;0.65;;;;;;;;;;4997754;28;20099;-46
2022/01/29 08:29:58;;;;;;;0.20;0.20;;;;;;;;;;5002707;28;20489;-44
2022/01/29 08:32:23;;;;;;;0.47;0.38;;;;;;;;;;5005620;28;20037;-46
2022/01/29 08:34:49;;;;;;;0.22;0.22;;;;;;;;;;4999900;28;20041;-46
2022/01/29 08:37:14;;;;;;;1.30;0.40;;;;;;;;;;5005777;28;20051;-45
2022/01/29 08:39:40;;;;;;;0.73;0.20;;;;;;;;;;5008252;28;20111;-45
2022/01/29 08:42:06;;;;;;;0.25;0.25;;;;;;;;;;4995853;28;20045;-45
2022/01/29 08:44:31;;;;;;;0.30;0.30;;;;;;;;;;5006831;28;20084;-48
2022/01/29 08:46:56;;;;;;;0.20;0.20;;;;;;;;;;5000456;28;20453;-47
2022/01/29 08:49:22;;;;;;;0.38;0.30;;;;;;;;;;5003947;28;20547;-45
2022/01/29 08:51:47;;;;;;;0.60;0.30;;;;;;;;;;5005042;28;20034;-48
2022/01/29 08:54:12;;;;;;;1.20;0.73;;;;;;;;;;5002693;28;20038;-46
2022/01/29 08:56:38;;;;;;;0.10;0.10;;;;;;;;;;4992023;28;20044;-46
2022/01/29 08:59:03;;;;;;;1.90;0.30;;;;;;;;;;4997303;28;20037;-45
2022/01/29 09:01:28;;;;;;;1.45;0.30;;;;;;;;;;4996298;28;20026;-45
2022/01/29 09:03:54;;;;;;;0.30;0.30;;;;;;;;;;4997644;28;20042;-46
2022/01/29 09:06:19;;;;;;;0.50;0.30;;;;;;;;;;4999297;28;20050;-46
2022/01/29 09:08:50;;;;;;;0.65;0.20;;;;;;;;;;4996695;28;20062;-45
2022/01/29 09:11:16;;;;;;;0.50;0.50;;;;;;;;;;4996168;28;20041;-45
2022/01/29 09:13:41;;;;;;;0.47;0.40;;;;;;;;;;4993225;28;20042;-45
2022/01/29 09:16:07;;;;;;;0.55;0.40;;;;;;;;;;4996218;28;20325;-48
2022/01/29 09:18:32;;;;;;;1.27;0.30;;;;;;;;;;4996651;28;20080;-46
2022/01/29 09:20:57;;;;;;;0.88;0.40;;;;;;;;;;5001159;28;20080;-46
2022/01/29 09:23:23;;;;;;;1.95;0.60;;;;;;;;;;4997201;28;20045;-45
2022/01/29 09:25:48;;;;;;;0.60;0.30;;;;;;;;;;4996898;28;20511;-45
2022/01/29 09:28:13;;;;;;;0.52;0.30;;;;;;;;;;4999337;28;20495;-46
2022/01/29 09:30:39;;;;;;;0.30;0.30;;;;;;;;;;4997646;28;20080;-46
2022/01/29 09:33:04;;;;;;;0.47;0.30;;;;;;;;;;4998818;28;20038;-47
2022/01/29 09:35:29;;;;;;;1.58;0.30;;;;;;;;;;5004566;28;20038;-47
2022/01/29 09:37:55;;;;;;;1.35;0.20;;;;;;;;;;5000662;28;20026;-45
2022/01/29 09:40:20;;;;;;;0.63;0.50;;;;;;;;;;5004193;28;20050;-46
2022/01/29 09:42:47;;;;;;;0.40;0.40;;;;;;;;;;4999096;28;20042;-45
2022/01/29 09:45:14;;;;;;;0.70;0.40;;;;;;;;;;5002735;28;21094;-45
2022/01/29 09:47:41;;;;;;;1.25;0.47;;;;;;;;;;4998677;28;20487;-48
2022/01/29 09:50:06;;;;;;;1.15;0.30;;;;;;;;;;5000273;28;20042;-48
2022/01/29 09:52:31;;;;;;;0.43;0.40;;;;;;;;;;5006953;28;20080;-50
2022/01/29 09:54:57;;;;;;;0.20;0.20;;;;;;;;;;5008862;28;20034;-47
2022/01/29 09:57:22;;;;;;;0.77;0.50;;;;;;;;;;5005598;28;20052;-45
2022/01/29 09:59:50;;;;;;;0.77;0.35;;;;;;;;;;5004967;28;20041;-45
2022/01/29 10:02:16;;;;;;;0.55;0.45;;;;;;;;;;5005978;28;20100;-45
2022/01/29 10:04:49;;;;;;;0.43;0.43;;;;;;;;;;5002507;28;20573;-47
2022/01/29 10:07:16;;;;;;;0.80;0.80;;;;;;;;;;5001586;28;20673;-45
2022/01/29 10:09:41;;;;;;;0.63;0.50;;;;;;;;;;5000668;28;20076;-46
2022/01/29 10:12:26;;;;;;;0.32;0.32;;;;;;;;;;5003917;28;20038;-47
2022/01/29 10:15:02;;;;;;;2.40;0.40;;;;;;;;;;4999216;28;20043;-45
2022/01/29 10:17:40;;;;;;;0.60;0.40;;;;;;;;;;4307416;28;10000706;-44
2022/01/29 10:20:16;;;;;;;2.35;0.70;;;;;;;;;;4995824;28;20045;-47
2022/01/29 10:22:44;;;;;;;0.50;0.45;;;;;;;;;;4998934;28;20057;-49
2022/01/29 10:25:13;;;;;;;1.30;0.40;;;;;;;;;;5001029;28;20046;-46
2022/01/29 10:27:39;;;;;;;1.38;0.40;;;;;;;;;;4995806;28;20045;-45
2022/01/29 10:30:07;;;;;;;0.50;0.50;;;;;;;;;;5008873;28;20132;-45
2022/01/29 10:32:35;;;;;;;1.98;0.50;;;;;;;;;;4997796;28;20042;-46
2022/01/29 10:35:00;;;;;;;0.50;0.50;;;;;;;;;;4999354;28;20049;-45
2022/01/29 10:37:26;;;;;;;1.67;0.98;;;;;;;;;;5000083;28;20396;-48
2022/01/29 10:39:55;;;;;;;0.90;0.40;;;;;;;;;;5001097;28;20030;-43
2022/01/29 10:42:22;;;;;;;2.10;0.40;;;;;;;;;;5005682;28;20058;-43
2022/01/29 10:44:49;;;;;;;1.60;0.40;;;;;;;;;;5005912;28;20042;-44
2022/01/29 10:47:14;;;;;;;1.25;0.40;;;;;;;;;;4999614;28;20041;-44
2022/01/29 10:49:48;;;;;;;2.63;0.60;;;;;;;;;;4995670;28;20033;-45
2022/01/29 10:52:14;;;;;;;0.90;0.90;;;;;;;;;;4992052;28;20603;-50
2022/01/29 10:54:40;;;;;;;0.52;0.52;;;;;;;;;;4994151;28;20542;-45
2022/01/29 10:57:13;;;;;;;0.20;0.20;;;;;;;;;;4998424;28;20062;-46
2022/01/29 10:59:48;;;;;;;1.38;0.63;;;;;;;;;;5005630;28;20038;-46
2022/01/29 11:02:14;;;;;;;0.50;0.30;;;;;;;;;;4994693;28;20113;-46
2022/01/29 11:04:40;;;;;;;0.45;0.43;;;;;;;;;;5002279;28;20788;-44
2022/01/29 11:07:13;;;;;;;0.95;0.68;;;;;;;;;;5001387;28;20137;-47
2022/01/29 11:09:40;;;;;;;1.13;0.60;;;;;;;;;;5004018;28;20047;-45
2022/01/29 11:12:05;;;;;;;1.13;0.80;;;;;;;;;;4650449;28;9999676;-46
2022/01/29 11:14:33;;;;;;;1.17;1.08;;;;;;;;;;4999074;28;20097;-47
2022/01/29 11:16:59;;;;;;;2.25;0.88;;;;;;;;;;5017720;28;20534;-44
2022/01/29 11:19:24;;;;;;;0.93;0.63;;;;;;;;;;4993650;28;20569;-45
2022/01/29 11:21:51;;;;;;;0.63;0.55;;;;;;;;;;5005633;28;20054;-45
2022/01/29 11:24:21;;;;;;;1.13;0.65;;;;;;;;;;5003359;28;20131;-46
2022/01/29 11:26:46;;;;;;;3.50;0.70;;;;;;;;;;5007587;28;20049;-45
2022/01/29 11:29:24;;;;;;;1.25;1.05;;;;;;;;;;4996876;28;20736;-45
2022/01/29 11:32:10;;;;;;;0.95;0.77;;;;;;;;;;4999003;28;20030;-44
2022/01/29 11:34:55;;;;;;;2.35;1.15;;;;;;;;;;4981192;28;20034;-46
2022/01/29 11:37:35;;;;;;;2.58;1.00;;;;;;;;;;4996453;28;20034;-47
2022/01/29 11:40:00;;;;;;;;;;;;;;;;;;5003092;28;20096;-45
2022/01/29 11:42:29;;;;;;;3.03;0.63;;;;;;;;;;5000742;28;19913;-45
2022/01/29 11:44:54;;;;;;;0.80;0.80;;;;;;;;;;5001093;28;20038;-45
2022/01/29 11:47:23;;;;;;;1.83;0.98;;;;;;;;;;4982690;28;20041;-45
2022/01/29 11:49:49;;;;;;;0.93;0.85;;;;;;;;;;5001932;28;20136;-44
2022/01/29 11:52:21;;;;;;;1.80;1.00;;;;;;;;;;5000546;28;20109;-46
2022/01/29 11:55:00;;;;;;;6.47;1.15;;;;;;;;;;5000616;28;20538;-47
2022/01/29 11:57:26;;;;;;;3.60;1.43;;;;;;;;;;5002222;28;20088;-47
2022/01/29 11:59:51;;;;;;;1.88;1.10;;;;;;;;;;5000648;28;20042;-46
2022/01/29 12:02:16;;;;;;;2.30;1.13;;;;;;;;;;4999322;28;20106;-47
2022/01/29 12:04:47;;;;;;;2.40;1.10;;;;;;;;;;5000945;28;20131;-47
2022/01/29 12:07:17;;;;;;;1.20;0.93;;;;;;;;;;5001297;28;20048;-48
2022/01/29 12:09:42;;;;;;;;;;;;;;;;;;5003160;28;20088;-46
2022/01/29 12:12:13;;;;;;;1.17;1.00;;;;;;;;;;5006543;28;20026;-47
2022/01/29 12:14:39;;;;;;;3.70;1.02;;;;;;;;;;5002105;28;20060;-46
2022/01/29 12:17:05;;;;;;;1.90;1.48;;;;;;;;;;5006780;28;20133;-46
2022/01/29 12:19:34;;;;;;;2.75;0.90;;;;;;;;;;5008561;28;20032;-46
2022/01/29 12:21:59;;;;;;;1.10;1.00;;;;;;;;;;5008588;28;20042;-47
2022/01/29 12:24:25;;;;;;;3.45;1.30;;;;;;;;;;4993111;28;20056;-47
2022/01/29 12:26:57;;;;;;;2.83;1.35;;;;;;;;;;5009334;28;20037;-46
2022/01/29 12:29:22;;;;;;;2.67;1.50;;;;;;;;;;5001782;28;20053;-52
2022/01/29 12:31:50;;;;;;;4.75;2.20;;;;;;;;;;5007515;28;20038;-47
2022/01/29 12:34:16;;;;;;;4.15;1.50;;;;;;;;;;5001868;28;20469;-46
2022/01/29 12:36:41;;;;;;;3.45;1.58;;;;;;;;;;5009554;28;20044;-51
2022/01/29 12:39:09;;;;;;;2.72;1.60;;;;;;;;;;5000828;28;20049;-48
2022/01/29 12:41:38;;;;;;;2.88;1.60;;;;;;;;;;4999242;28;20605;-45
2022/01/29 12:44:08;;;;;;;4.05;1.65;;;;;;;;;;4988448;28;20792;-46
2022/01/29 12:46:34;;;;;;;5.60;1.75;;;;;;;;;;4996601;28;20096;-45
2022/01/29 12:49:02;;;;;;;4.47;2.08;;;;;;;;;;4308079;28;10000664;-50
2022/01/29 12:51:27;;;;;;;3.30;1.90;;;;;;;;;;5000732;28;20729;-46
2022/01/29 12:53:56;;;;;;;3.22;2.15;;;;;;;;;;5003971;28;20068;-45
2022/01/29 12:56:21;;;;;;;4.38;2.50;;;;;;;;;;5004635;28;20033;-46
2022/01/29 12:58:46;;;;;;;6.53;3.83;;;;;;;;;;4987830;28;20728;-49
2022/01/29 13:01:13;;;;;;;4.25;2.13;;;;;;;;;;4990502;28;20038;-48
2022/01/29 13:03:38;;;;;;;5.15;2.25;;;;;;;;;;4987502;28;20058;-48
2022/01/29 13:06:05;;;;;;;5.13;1.70;;;;;;;;;;5001519;28;20038;-46
2022/01/29 13:08:31;;;;;;;6.10;2.20;;;;;;;;;;5000087;28;20030;-46
2022/01/29 13:10:56;;;;;;;4.35;2.67;;;;;;;;;;4999681;28;20041;-49
2022/01/29 13:13:25;;;;;;;3.85;2.17;;;;;;;;;;4998548;28;20034;-47
2022/01/29 13:15:50;;;;;;;2.63;1.37;;;;;;;;;;5000489;28;20033;-48
2022/01/29 13:18:15;;;;;;;3.63;1.60;;;;;;;;;;4993797;28;20286;-45
2022/01/29 13:20:40;;;;;;;3.25;1.23;;;;;;;;;;4998249;28;20027;-47
2022/01/29 13:23:06;;;;;;;5.75;1.83;;;;;;;;;;4311212;28;10000641;-47
2022/01/29 13:25:34;;;;;;;4.32;2.08;;;;;;;;;;5001573;28;20084;-48
2022/01/29 13:28:13;;;;;;;9.98;2.05;;;;;;;;;;5006144;28;20046;-45
2022/01/29 13:30:39;;;;;;;5.93;1.95;;;;;;;;;;5005505;28;20038;-45
2022/01/29 13:33:15;;;;;;;2.75;1.35;;;;;;;;;;5004507;28;20045;-46
2022/01/29 13:35:51;;;;;;;6.57;2.28;;;;;;;;;;5004088;28;20041;-46
2022/01/29 13:38:22;;;;;;;5.68;1.40;;;;;;;;;;4993070;28;20054;-45
2022/01/29 13:40:49;;;;;;;3.15;2.25;;;;;;;;;;5005988;28;20042;-45
2022/01/29 13:43:24;;;;;;;3.67;1.63;;;;;;;;;;4999057;28;20145;-45
2022/01/29 13:45:51;;;;;;;5.60;1.63;;;;;;;;;;5004107;28;20037;-46
2022/01/29 13:48:17;;;;;;;3.90;1.60;;;;;;;;;;4995995;28;20060;-46
2022/01/29 13:50:54;;;;;;;2.50;1.40;;;;;;;;;;4998619;28;20030;-45
2022/01/29 13:53:21;;;;;;;3.53;1.38;;;;;;;;;;5002257;28;20506;-45
2022/01/29 13:55:55;;;;;;;2.40;1.73;;;;;;;;;;4998026;28;20034;-46
2022/01/29 13:58:21;;;;;;;3.63;1.63;;;;;;;;;;5008199;28;20641;-47
2022/01/29 14:00:50;;;;;;;3.72;1.75;;;;;;;;;;5012892;28;20065;-46
2022/01/29 14:03:16;;;;;;;5.05;1.58;;;;;;;;;;5003565;28;20144;-45
2022/01/29 14:05:41;;;;;;;5.65;1.67;;;;;;;;;;5003825;28;20132;-47
2022/01/29 14:08:21;;;;;;;3.42;1.58;;;;;;;;;;5004458;28;20518;-45
2022/01/29 14:10:55;;;;;;;3.35;1.27;;;;;;;;;;5000351;28;20026;-45
2022/01/29 14:13:20;;;;;;;5.72;1.60;;;;;;;;;;5001283;28;20402;-46
2022/01/29 14:15:47;;;;;;;3.40;1.20;;;;;;;;;;5000800;28;20385;-45
2022/01/29 14:18:13;;;;;;;2.20;0.88;;;;;;;;;;5003563;28;20045;-47
2022/01/29 14:20:38;;;;;;;4.55;2.20;;;;;;;;;;5004576;28;20041;-47
2022/01/29 14:23:03;;;;;;;2.53;1.20;;;;;;;;;;5010463;28;20057;-45
2022/01/29 14:25:28;;;;;;;3.40;1.60;;;;;;;;;;5003581;28;20153;-46
2022/01/29 14:27:55;;;;;;;1.48;1.25;;;;;;;;;;5002482;28;20029;-46
2022/01/29 14:30:21;;;;;;;1.52;1.10;;;;;;;;;;5007273;28;20045;-47
2022/01/29 14:32:46;;;;;;;3.88;1.40;;;;;;;;;;5009223;28;20029;-46
2022/01/29 14:35:14;;;;;;;3.50;1.38;;;;;;;;;;5009851;28;20156;-45
2022/01/29 14:37:39;;;;;;;1.48;1.38;;;;;;;;;;5007453;28;20034;-49
2022/01/29 14:40:06;;;;;;;3.15;1.42;;;;;;;;;;5008053;28;20141;-46
2022/01/29 14:42:35;;;;;;;4.30;1.17;;;;;;;;;;5003331;28;20050;-46
2022/01/29 14:45:00;;;;;;;2.78;1.55;;;;;;;;;;4995913;28;20377;-44
2022/01/29 14:47:25;;;;;;;4.15;2.08;;;;;;;;;;4991379;28;20746;-45
2022/01/29 14:49:51;;;;;;;1.50;1.27;;;;;;;;;;4996272;28;20026;-48
2022/01/29 14:52:16;;;;;;;2.17;1.60;;;;;;;;;;4989216;28;20034;-46
2022/01/29 14:54:42;;;;;;;2.22;1.25;;;;;;;;;;4992271;28;20038;-44